Time;durP1;ratioP1;P1;durP2;ratioP2;P2;SDS_P1;SDS_P2;PMS_P1;PMS_P2;Temp;Humidity;BMP_temperature;BMP_pressure;BME280_temperature;BME280_humidity;BME280_pressure;Samples;Min_cycle;Max_cycle;Signal;HPM_P1;HPM_P2
2023/10/16 00:00:40;;;;;;;2.10;1.13;;;;;;;;;;4954050;29;20232;-91
2023/10/16 00:03:08;;;;;;;1.55;1.20;;;;;;;;;;4957533;28;20292;-90
2023/10/16 00:05:45;;;;;;;1.58;1.48;;;;;;;;;;4954078;29;20217;-90
2023/10/16 00:08:16;;;;;;;2.03;1.20;;;;;;;;;;4953839;29;20288;-91
2023/10/16 00:10:56;;;;;;;1.40;1.30;;;;;;;;;;4955216;29;20592;-90
2023/10/16 00:13:26;;;;;;;2.63;1.98;;;;;;;;;;4954697;29;20224;-91
2023/10/16 00:15:55;;;;;;;2.50;1.98;;;;;;;;;;4954876;29;20209;-91
2023/10/16 00:18:33;;;;;;;5.28;2.20;;;;;;;;;;4953999;28;20284;-90
2023/10/16 00:21:04;;;;;;;2.88;2.08;;;;;;;;;;4953679;29;20219;-92
2023/10/16 00:23:37;;;;;;;2.67;1.70;;;;;;;;;;4953570;29;20284;-91
2023/10/16 00:26:07;;;;;;;2.05;1.30;;;;;;;;;;4954164;29;20682;-90
2023/10/16 00:28:35;;;;;;;1.65;1.33;;;;;;;;;;4953999;29;20227;-90
2023/10/16 00:31:03;;;;;;;1.70;1.35;;;;;;;;;;4953853;29;20690;-90
2023/10/16 00:33:33;;;;;;;2.45;1.90;;;;;;;;;;4953460;29;20256;-92
2023/10/16 00:36:02;;;;;;;0.85;0.85;;;;;;;;;;4953820;29;20216;-90
2023/10/16 00:38:37;;;;;;;0.95;0.95;;;;;;;;;;4953532;29;20253;-90
2023/10/16 00:41:16;;;;;;;1.60;1.50;;;;;;;;;;4953728;29;20224;-90
2023/10/16 00:43:45;;;;;;;0.88;0.88;;;;;;;;;;4953298;29;20284;-89
2023/10/16 00:46:19;;;;;;;1.40;1.17;;;;;;;;;;4954144;28;20272;-92
2023/10/16 00:48:47;;;;;;;1.00;1.00;;;;;;;;;;4961419;29;20212;-91
2023/10/16 00:51:16;;;;;;;3.10;1.20;;;;;;;;;;4956793;29;20213;-90
2023/10/16 00:53:45;;;;;;;1.48;1.38;;;;;;;;;;4948597;29;20588;-90
2023/10/16 00:56:14;;;;;;;3.63;1.38;;;;;;;;;;4956995;29;20197;-90
2023/10/16 00:58:42;;;;;;;2.30;1.50;;;;;;;;;;4956897;29;20193;-90
2023/10/16 01:01:12;;;;;;;1.40;1.00;;;;;;;;;;4956716;29;20701;-89
2023/10/16 01:03:44;;;;;;;1.02;1.00;;;;;;;;;;4956410;29;20260;-89
2023/10/16 01:06:17;;;;;;;1.20;1.10;;;;;;;;;;4956814;29;20733;-90
2023/10/16 01:08:49;;;;;;;1.27;1.05;;;;;;;;;;4956945;28;20205;-90
2023/10/16 01:11:19;;;;;;;1.30;1.20;;;;;;;;;;4956739;29;20241;-91
2023/10/16 01:13:47;;;;;;;3.08;1.40;;;;;;;;;;4956143;29;20256;-90
2023/10/16 01:16:16;;;;;;;0.80;0.80;;;;;;;;;;4956482;29;20204;-91
2023/10/16 01:18:44;;;;;;;1.42;1.20;;;;;;;;;;4956773;29;20207;-91
2023/10/16 01:21:14;;;;;;;1.58;1.08;;;;;;;;;;4956151;29;20284;-90
2023/10/16 01:23:45;;;;;;;1.00;1.00;;;;;;;;;;4956421;28;20232;-90
2023/10/16 01:26:15;;;;;;;1.77;1.27;;;;;;;;;;4957486;29;20200;-90
2023/10/16 01:28:42;;;;;;;1.13;1.00;;;;;;;;;;4957305;28;20641;-91
2023/10/16 01:31:10;;;;;;;0.85;0.85;;;;;;;;;;4956632;29;20213;-93
2023/10/16 01:33:41;;;;;;;1.40;1.30;;;;;;;;;;4955947;29;20320;-91
2023/10/16 01:36:10;;;;;;;1.10;1.10;;;;;;;;;;4956559;29;20201;-91
2023/10/16 01:38:38;;;;;;;1.08;1.00;;;;;;;;;;4956330;29;20220;-92
2023/10/16 01:41:09;;;;;;;1.00;1.00;;;;;;;;;;4956038;29;20211;-91
2023/10/16 01:43:38;;;;;;;1.60;1.35;;;;;;;;;;4955939;28;20232;-91
2023/10/16 01:46:08;;;;;;;1.40;1.30;;;;;;;;;;4956055;29;20204;-91
2023/10/16 01:48:37;;;;;;;2.25;1.17;;;;;;;;;;4956221;28;20205;-92
2023/10/16 01:51:06;;;;;;;1.25;1.20;;;;;;;;;;4953195;28;20201;-91
2023/10/16 01:53:36;;;;;;;1.88;1.30;;;;;;;;;;4955025;29;20231;-91
2023/10/16 01:56:13;;;;;;;1.48;1.25;;;;;;;;;;4956026;29;20205;-92
2023/10/16 01:58:42;;;;;;;1.38;1.27;;;;;;;;;;4955987;28;20208;-90
2023/10/16 02:01:11;;;;;;;1.27;1.17;;;;;;;;;;4955943;29;20199;-91
2023/10/16 02:03:43;;;;;;;1.23;1.13;;;;;;;;;;4955442;29;20249;-91
2023/10/16 02:06:12;;;;;;;1.38;1.27;;;;;;;;;;4955281;29;20197;-91
2023/10/16 02:08:39;;;;;;;1.33;1.23;;;;;;;;;;4955628;29;20209;-90
2023/10/16 02:11:10;;;;;;;1.70;1.58;;;;;;;;;;4955407;29;20284;-90
2023/10/16 02:13:40;;;;;;;1.20;1.10;;;;;;;;;;4955455;29;20252;-92
2023/10/16 02:16:10;;;;;;;1.35;1.25;;;;;;;;;;4959276;29;20225;-91
2023/10/16 02:18:40;;;;;;;1.10;1.00;;;;;;;;;;4955643;29;20631;-91
2023/10/16 02:21:11;;;;;;;1.00;1.00;;;;;;;;;;4955281;29;20214;-91
2023/10/16 02:23:38;;;;;;;1.17;0.90;;;;;;;;;;4954828;29;20299;-91
2023/10/16 02:26:08;;;;;;;1.20;1.10;;;;;;;;;;4955389;29;20288;-90
2023/10/16 02:28:36;;;;;;;1.95;1.27;;;;;;;;;;4955269;28;20201;-90
2023/10/16 02:31:10;;;;;;;1.10;1.00;;;;;;;;;;4955869;29;20733;-92
2023/10/16 02:33:38;;;;;;;1.58;1.45;;;;;;;;;;4954965;29;20221;-91
2023/10/16 02:36:07;;;;;;;4.18;1.63;;;;;;;;;;4959343;29;20215;-91
2023/10/16 02:38:35;;;;;;;1.13;1.13;;;;;;;;;;4979393;28;20193;-89
2023/10/16 02:41:03;;;;;;;1.52;1.42;;;;;;;;;;4979665;28;20213;-89
2023/10/16 02:43:36;;;;;;;1.98;1.20;;;;;;;;;;4979311;28;20240;-91
2023/10/16 02:46:05;;;;;;;1.45;1.35;;;;;;;;;;4957416;29;20220;-91
2023/10/16 02:48:33;;;;;;;2.33;1.73;;;;;;;;;;4956004;29;20212;-90
2023/10/16 02:51:02;;;;;;;1.10;1.10;;;;;;;;;;4955550;29;20216;-90
2023/10/16 02:53:33;;;;;;;1.20;0.93;;;;;;;;;;4945531;29;20313;-89
2023/10/16 02:56:05;;;;;;;1.50;1.33;;;;;;;;;;4936122;29;20213;-89
2023/10/16 02:58:38;;;;;;;1.10;1.10;;;;;;;;;;4935651;29;20214;-89
2023/10/16 03:01:13;;;;;;;1.00;1.00;;;;;;;;;;4935641;29;20743;-91
2023/10/16 03:03:43;;;;;;;1.98;1.88;;;;;;;;;;4935429;29;20276;-90
2023/10/16 03:06:12;;;;;;;1.60;1.50;;;;;;;;;;4935302;29;20229;-89
2023/10/16 03:08:40;;;;;;;4.93;1.90;;;;;;;;;;4935508;28;20300;-90
2023/10/16 03:11:13;;;;;;;1.83;1.50;;;;;;;;;;4941518;28;20877;-91
2023/10/16 03:13:43;;;;;;;1.00;1.00;;;;;;;;;;4941219;28;20233;-89
2023/10/16 03:16:15;;;;;;;1.67;1.58;;;;;;;;;;4941652;28;20205;-89
2023/10/16 03:18:44;;;;;;;1.52;1.40;;;;;;;;;;4942083;29;20759;-90
2023/10/16 03:24:10;;;;;;;3.22;1.80;;;;;;;;;;5137637;27;21074;-89
2023/10/16 03:26:42;;;;;;;1.98;1.30;;;;;;;;;;5103873;28;20203;-92
2023/10/16 03:29:10;;;;;;;2.55;1.60;;;;;;;;;;5101997;28;20576;-92
2023/10/16 03:31:39;;;;;;;8.93;2.10;;;;;;;;;;5104240;27;20294;-92
2023/10/16 03:34:11;;;;;;;6.97;1.88;;;;;;;;;;5130266;28;20214;-92
2023/10/16 03:36:39;;;;;;;2.45;1.95;;;;;;;;;;5130626;27;20214;-92
2023/10/16 03:39:16;;;;;;;1.52;1.40;;;;;;;;;;5118416;27;20199;-91
2023/10/16 03:41:44;;;;;;;1.77;1.45;;;;;;;;;;5117395;27;20637;-90
2023/10/16 03:44:17;;;;;;;2.33;1.98;;;;;;;;;;5118701;27;20227;-90
2023/10/16 03:46:46;;;;;;;5.22;2.33;;;;;;;;;;5118819;27;20294;-92
2023/10/16 03:49:15;;;;;;;9.18;3.88;;;;;;;;;;5118334;27;20207;-90
2023/10/16 03:51:44;;;;;;;3.72;2.45;;;;;;;;;;5119825;27;21249;-90
2023/10/16 03:54:14;;;;;;;5.03;3.25;;;;;;;;;;5118873;27;20195;-91
2023/10/16 03:56:41;;;;;;;4.95;3.10;;;;;;;;;;5121461;27;20545;-91
2023/10/16 03:59:11;;;;;;;7.60;3.85;;;;;;;;;;5119773;27;20213;-90
2023/10/16 04:01:39;;;;;;;6.93;3.60;;;;;;;;;;5119120;27;20405;-91
2023/10/16 04:04:12;;;;;;;5.70;3.25;;;;;;;;;;5129880;27;20222;-92
2023/10/16 04:06:41;;;;;;;6.47;4.22;;;;;;;;;;5133794;27;20569;-91
2023/10/16 04:09:09;;;;;;;5.38;2.45;;;;;;;;;;5126194;27;20218;-91
2023/10/16 04:11:38;;;;;;;10.88;4.40;;;;;;;;;;5117504;27;20207;-89
2023/10/16 04:14:14;;;;;;;3.72;2.75;;;;;;;;;;5118152;27;20661;-91
2023/10/16 04:16:53;;;;;;;3.17;2.17;;;;;;;;;;5118275;27;20295;-90
2023/10/16 04:19:36;;;;;;;3.03;1.92;;;;;;;;;;5118072;27;20210;-91
2023/10/16 04:22:09;;;;;;;2.33;1.90;;;;;;;;;;5118883;27;20230;-91
2023/10/16 04:24:44;;;;;;;3.35;2.35;;;;;;;;;;5117955;27;20245;-91
2023/10/16 04:33:13;;;;;;;1.83;1.73;;;;;;;;;;5117446;27;20234;-90
2023/10/16 04:35:53;;;;;;;1.98;1.75;;;;;;;;;;5103856;27;20578;-91
2023/10/16 04:38:52;;;;;;;1.85;1.70;;;;;;;;;;5104750;27;20199;-91
2023/10/16 04:44:49;;;;;;;1.60;1.50;;;;;;;;;;5103932;27;20372;-92
2023/10/16 04:47:17;;;;;;;2.33;2.13;;;;;;;;;;5103987;27;20196;-91
2023/10/16 04:53:06;;;;;;;2.22;2.05;;;;;;;;;;5106040;27;20219;-90
2023/10/16 04:58:27;;;;;;;1.80;1.70;;;;;;;;;;5103600;27;20211;-90
2023/10/16 05:01:03;;;;;;;3.03;1.92;;;;;;;;;;5103841;27;20656;-91
2023/10/16 05:03:44;;;;;;;1.73;1.63;;;;;;;;;;5103320;27;21041;-91
2023/10/16 05:06:14;;;;;;;4.22;2.35;;;;;;;;;;5104273;27;20288;-90
2023/10/16 05:08:59;;;;;;;3.88;2.15;;;;;;;;;;5103316;27;20219;-91
2023/10/16 05:11:27;;;;;;;1.98;1.88;;;;;;;;;;5113100;28;20283;-91
2023/10/16 05:16:48;;;;;;;2.38;2.13;;;;;;;;;;5114630;28;20234;-92
2023/10/16 05:19:43;;;;;;;2.08;1.88;;;;;;;;;;5115180;28;20195;-90
2023/10/16 06:14:36;;;;;;;3.10;2.35;;;;;;;;;;5113976;28;20199;-91
2023/10/16 06:17:15;;;;;;;2.40;2.20;;;;;;;;;;5117565;28;20938;-91
2023/10/16 06:19:43;;;;;;;2.85;2.65;;;;;;;;;;5114056;27;20227;-92
2023/10/16 06:22:13;;;;;;;2.53;2.33;;;;;;;;;;5113959;27;20348;-92
2023/10/16 06:24:44;;;;;;;3.05;2.85;;;;;;;;;;5114626;28;20298;-93
2023/10/16 06:27:12;;;;;;;5.22;3.45;;;;;;;;;;5113721;27;20657;-93
2023/10/16 06:29:49;;;;;;;3.72;3.42;;;;;;;;;;5113519;28;20294;-92
2023/10/16 06:32:19;;;;;;;2.63;2.42;;;;;;;;;;5113625;27;20227;-92
2023/10/16 06:34:47;;;;;;;2.50;2.33;;;;;;;;;;5113615;28;20235;-92
2023/10/16 06:37:17;;;;;;;4.35;2.60;;;;;;;;;;5113793;27;20295;-91
2023/10/16 06:39:46;;;;;;;2.95;2.65;;;;;;;;;;5113781;28;20206;-92
2023/10/16 06:42:17;;;;;;;3.13;2.92;;;;;;;;;;5113840;27;20224;-91
2023/10/16 06:44:50;;;;;;;4.30;3.38;;;;;;;;;;5113411;28;20241;-91
2023/10/16 06:47:23;;;;;;;2.95;2.75;;;;;;;;;;5115631;28;20664;-90
2023/10/16 06:49:51;;;;;;;3.22;2.92;;;;;;;;;;5113778;28;20241;-91
2023/10/16 06:52:20;;;;;;;2.95;2.38;;;;;;;;;;5113333;27;20254;-91
2023/10/16 06:54:48;;;;;;;3.03;2.80;;;;;;;;;;5113313;28;20320;-91
2023/10/16 06:57:19;;;;;;;2.65;2.45;;;;;;;;;;5113018;27;20294;-90
2023/10/16 06:59:50;;;;;;;2.20;2.00;;;;;;;;;;5112865;28;20571;-91
2023/10/16 07:02:19;;;;;;;3.28;2.97;;;;;;;;;;5113016;28;20230;-91
2023/10/16 07:04:47;;;;;;;3.20;2.90;;;;;;;;;;5113108;27;20224;-90
2023/10/16 07:07:16;;;;;;;3.58;3.13;;;;;;;;;;5113212;28;20199;-91
2023/10/16 07:09:47;;;;;;;2.72;2.53;;;;;;;;;;5113028;27;20233;-91
2023/10/16 07:12:16;;;;;;;5.45;3.67;;;;;;;;;;5113022;28;20564;-91
2023/10/16 07:14:47;;;;;;;3.75;3.38;;;;;;;;;;5113333;27;20208;-90
2023/10/16 07:17:16;;;;;;;4.13;3.67;;;;;;;;;;5113181;27;20234;-90
2023/10/16 07:19:44;;;;;;;3.05;2.85;;;;;;;;;;5114781;27;20250;-91
2023/10/16 07:22:12;;;;;;;2.97;2.70;;;;;;;;;;5112634;27;20314;-90
2023/10/16 07:24:39;;;;;;;4.25;3.60;;;;;;;;;;5112955;27;20677;-91
2023/10/16 07:27:12;;;;;;;5.13;4.63;;;;;;;;;;5113500;28;20209;-91
2023/10/16 07:29:42;;;;;;;4.10;3.70;;;;;;;;;;5115115;28;20199;-90
2023/10/16 07:32:10;;;;;;;6.32;4.40;;;;;;;;;;5115302;28;20212;-90
2023/10/16 07:34:38;;;;;;;3.58;3.28;;;;;;;;;;5116577;28;20286;-89
2023/10/16 07:37:07;;;;;;;4.07;3.70;;;;;;;;;;5117732;27;20199;-91
2023/10/16 07:39:35;;;;;;;3.55;3.25;;;;;;;;;;5113187;28;20192;-91
2023/10/16 07:42:02;;;;;;;5.32;4.32;;;;;;;;;;5112699;27;20306;-91
2023/10/16 07:44:35;;;;;;;4.97;4.07;;;;;;;;;;5112783;28;20219;-90
2023/10/16 07:47:06;;;;;;;4.15;3.75;;;;;;;;;;5126695;28;20186;-88
2023/10/16 07:49:33;;;;;;;3.78;3.47;;;;;;;;;;5136644;27;20276;-88
2023/10/16 07:52:05;;;;;;;4.40;4.00;;;;;;;;;;5137391;28;20226;-88
2023/10/16 07:54:36;;;;;;;3.90;3.22;;;;;;;;;;5130506;28;20211;-90
2023/10/16 07:57:04;;;;;;;8.07;4.75;;;;;;;;;;5113442;28;20208;-89
2023/10/16 07:59:36;;;;;;;3.72;3.42;;;;;;;;;;5113496;28;20202;-91
2023/10/16 08:02:08;;;;;;;4.15;3.85;;;;;;;;;;5112413;28;20227;-91
2023/10/16 08:04:38;;;;;;;8.07;4.60;;;;;;;;;;5113307;28;20448;-90
2023/10/16 08:07:16;;;;;;;6.05;5.55;;;;;;;;;;5112808;28;20279;-91
2023/10/16 08:09:57;;;;;;;4.97;4.47;;;;;;;;;;5117262;28;20207;-90
2023/10/16 08:12:35;;;;;;;5.22;4.55;;;;;;;;;;5116615;28;20222;-91
2023/10/16 08:15:21;;;;;;;4.35;3.95;;;;;;;;;;5117523;28;20204;-90
2023/10/16 08:17:51;;;;;;;5.00;4.47;;;;;;;;;;5117057;28;20683;-91
2023/10/16 08:20:19;;;;;;;5.68;5.18;;;;;;;;;;5116759;28;20215;-92
2023/10/16 08:25:40;;;;;;;4.93;4.43;;;;;;;;;;5040974;22;20533;-85
2023/10/16 08:28:20;;;;;;;5.63;5.13;;;;;;;;;;5015397;28;20626;-86
2023/10/16 08:30:54;;;;;;;6.68;6.03;;;;;;;;;;5016745;28;20201;-85
2023/10/16 08:33:30;;;;;;;8.15;6.13;;;;;;;;;;5020279;28;20577;-86
2023/10/16 08:35:59;;;;;;;8.68;5.55;;;;;;;;;;5036115;28;20194;-85
2023/10/16 08:38:26;;;;;;;7.25;6.55;;;;;;;;;;5037126;28;20636;-85
2023/10/16 08:41:06;;;;;;;5.90;5.40;;;;;;;;;;5035304;28;20237;-85
2023/10/16 08:43:52;;;;;;;6.15;5.43;;;;;;;;;;5035458;28;20214;-84
2023/10/16 08:46:30;;;;;;;6.72;5.85;;;;;;;;;;5031159;28;20566;-84
2023/10/16 08:48:58;;;;;;;7.25;5.15;;;;;;;;;;5036514;28;20210;-85
2023/10/16 08:51:28;;;;;;;4.75;4.35;;;;;;;;;;5037522;28;20190;-85
2023/10/16 08:54:00;;;;;;;5.00;4.57;;;;;;;;;;5036247;28;20226;-85
2023/10/16 08:56:28;;;;;;;4.57;4.20;;;;;;;;;;5033007;28;20651;-85
2023/10/16 08:58:57;;;;;;;4.70;4.22;;;;;;;;;;5033961;28;20337;-84
2023/10/16 09:01:32;;;;;;;9.57;4.55;;;;;;;;;;5036464;28;20655;-85
2023/10/16 09:04:05;;;;;;;6.57;4.50;;;;;;;;;;5036504;28;20225;-85
2023/10/16 09:06:37;;;;;;;5.70;5.10;;;;;;;;;;5034893;28;20272;-84
2023/10/16 09:09:12;;;;;;;6.40;5.80;;;;;;;;;;5035315;28;20205;-84
2023/10/16 09:11:40;;;;;;;5.15;4.75;;;;;;;;;;5036458;28;20206;-86
2023/10/16 09:14:08;;;;;;;5.22;4.72;;;;;;;;;;5034811;28;20222;-85
2023/10/16 09:16:43;;;;;;;5.10;4.60;;;;;;;;;;5036325;28;20281;-85
2023/10/16 09:19:14;;;;;;;4.03;3.63;;;;;;;;;;5035443;28;20392;-85
2023/10/16 09:21:44;;;;;;;4.38;3.97;;;;;;;;;;5035743;28;20291;-85
2023/10/16 09:24:14;;;;;;;4.03;3.72;;;;;;;;;;5035617;28;20230;-85
2023/10/16 09:26:45;;;;;;;3.08;2.88;;;;;;;;;;5032561;28;20281;-85
2023/10/16 09:29:20;;;;;;;6.68;4.15;;;;;;;;;;5035429;28;20217;-84
2023/10/16 09:31:49;;;;;;;5.97;4.00;;;;;;;;;;5035354;28;20204;-85
2023/10/16 09:34:22;;;;;;;7.18;5.20;;;;;;;;;;5034834;28;20226;-84
2023/10/16 09:37:14;;;;;;;6.70;4.93;;;;;;;;;;5034636;28;20681;-85
2023/10/16 09:39:39;;;;;;;4.70;4.25;;;;;;;;;;5034789;28;20198;-85
2023/10/16 09:42:11;;;;;;;5.53;4.53;;;;;;;;;;5035750;28;20572;-85
2023/10/16 09:44:40;;;;;;;4.78;4.38;;;;;;;;;;5035210;28;20316;-85
2023/10/16 09:47:30;;;;;;;5.35;4.82;;;;;;;;;;5035158;28;20699;-85
2023/10/16 09:49:59;;;;;;;6.68;4.75;;;;;;;;;;5035260;28;20229;-84
2023/10/16 09:52:30;;;;;;;5.82;4.35;;;;;;;;;;5037373;28;20204;-86
2023/10/16 09:55:00;;;;;;;4.10;3.75;;;;;;;;;;5034939;28;20269;-85
2023/10/16 09:57:30;;;;;;;4.53;4.13;;;;;;;;;;5031360;28;20288;-85
2023/10/16 10:00:23;;;;;;;3.42;3.15;;;;;;;;;;5034882;28;20209;-85
2023/10/16 10:02:54;;;;;;;4.70;4.20;;;;;;;;;;5034577;28;20198;-86
2023/10/16 10:05:31;;;;;;;5.20;4.70;;;;;;;;;;5034849;28;20675;-84
2023/10/16 10:08:00;;;;;;;3.90;3.58;;;;;;;;;;5034681;28;20201;-85
2023/10/16 10:13:16;;;;;;;7.03;4.47;;;;;;;;;;5033721;28;20206;-85
2023/10/16 10:15:46;;;;;;;4.43;4.00;;;;;;;;;;5033683;28;20570;-85
2023/10/16 10:18:32;;;;;;;4.20;3.80;;;;;;;;;;5034159;28;20191;-85
2023/10/16 10:21:02;;;;;;;6.28;4.35;;;;;;;;;;5036632;28;20202;-84
2023/10/16 10:23:32;;;;;;;4.93;4.43;;;;;;;;;;5033603;28;20268;-85
2023/10/16 10:26:02;;;;;;;5.25;4.60;;;;;;;;;;5033534;28;20709;-85
2023/10/16 10:28:32;;;;;;;5.47;4.03;;;;;;;;;;5032935;28;20273;-85
2023/10/16 10:31:02;;;;;;;7.28;4.47;;;;;;;;;;5033645;28;20554;-85
2023/10/16 10:33:51;;;;;;;5.05;3.97;;;;;;;;;;5033389;28;20642;-85
2023/10/16 10:36:36;;;;;;;4.45;4.03;;;;;;;;;;5033819;28;20208;-85
2023/10/16 10:39:47;;;;;;;3.33;2.97;;;;;;;;;;5033948;28;20202;-85
2023/10/16 10:42:23;;;;;;;3.10;2.80;;;;;;;;;;5014273;28;20775;-85
2023/10/16 10:45:21;;;;;;;3.30;3.00;;;;;;;;;;5034011;28;20717;-86
2023/10/16 10:47:54;;;;;;;2.60;2.40;;;;;;;;;;5032015;28;20699;-85
2023/10/16 10:50:24;;;;;;;2.92;2.67;;;;;;;;;;5033785;28;20209;-85
2023/10/16 10:52:52;;;;;;;3.72;2.78;;;;;;;;;;5034457;28;20202;-86
2023/10/16 10:55:21;;;;;;;4.78;3.58;;;;;;;;;;5036179;28;20229;-87
2023/10/16 10:57:58;;;;;;;4.40;4.03;;;;;;;;;;5035617;28;20671;-85
2023/10/16 11:03:08;;;;;;;4.85;4.30;;;;;;;;;;5029881;28;20194;-85
2023/10/16 11:05:42;;;;;;;3.33;3.00;;;;;;;;;;5033502;28;20194;-85
2023/10/16 11:08:25;;;;;;;3.25;2.80;;;;;;;;;;5033523;28;20202;-86
2023/10/16 11:10:55;;;;;;;3.05;2.85;;;;;;;;;;5037500;28;20198;-85
2023/10/16 11:13:26;;;;;;;2.88;2.55;;;;;;;;;;5033410;28;20238;-85
2023/10/16 11:15:57;;;;;;;2.78;2.50;;;;;;;;;;5033170;28;20210;-85
2023/10/16 11:18:27;;;;;;;3.00;2.45;;;;;;;;;;5033339;28;20297;-85
2023/10/16 11:20:58;;;;;;;2.60;2.40;;;;;;;;;;5033408;28;20205;-85
2023/10/16 11:23:31;;;;;;;2.58;2.38;;;;;;;;;;5032826;28;20234;-85
2023/10/16 11:25:59;;;;;;;2.88;2.67;;;;;;;;;;5033387;28;20240;-85
2023/10/16 11:28:31;;;;;;;4.93;3.20;;;;;;;;;;5032215;28;20206;-85
2023/10/16 11:31:01;;;;;;;3.45;3.15;;;;;;;;;;5033578;28;20260;-85
2023/10/16 11:33:34;;;;;;;3.40;3.10;;;;;;;;;;5032736;28;20309;-85
2023/10/16 11:36:06;;;;;;;5.00;3.70;;;;;;;;;;5033470;28;20226;-85
2023/10/16 11:38:34;;;;;;;2.78;2.45;;;;;;;;;;5033388;28;20702;-85
2023/10/16 11:41:06;;;;;;;3.10;2.88;;;;;;;;;;5033400;28;20209;-85
2023/10/16 11:43:38;;;;;;;2.20;2.10;;;;;;;;;;5032877;28;20349;-85
2023/10/16 11:46:20;;;;;;;2.25;2.05;;;;;;;;;;5033597;28;20198;-85
2023/10/16 11:48:49;;;;;;;2.65;2.45;;;;;;;;;;5037250;28;20198;-85
2023/10/16 11:51:18;;;;;;;2.38;2.17;;;;;;;;;;5036741;28;20625;-85
2023/10/16 11:53:47;;;;;;;2.88;2.42;;;;;;;;;;5036464;28;20260;-85
2023/10/16 11:56:18;;;;;;;3.22;2.50;;;;;;;;;;5037074;28;20208;-85
2023/10/16 11:58:46;;;;;;;2.20;2.00;;;;;;;;;;5037093;28;20206;-85
2023/10/16 12:01:14;;;;;;;2.00;1.83;;;;;;;;;;5036838;28;20202;-85
2023/10/16 12:03:42;;;;;;;2.42;2.22;;;;;;;;;;5036417;28;20328;-85
2023/10/16 12:06:13;;;;;;;2.25;2.05;;;;;;;;;;5036656;28;20268;-85
2023/10/16 12:08:44;;;;;;;1.80;1.70;;;;;;;;;;5036377;28;20761;-85
2023/10/16 12:11:14;;;;;;;2.40;2.00;;;;;;;;;;5036726;28;20204;-85
2023/10/16 12:13:42;;;;;;;2.03;1.50;;;;;;;;;;5036056;28;20265;-85
2023/10/16 12:16:09;;;;;;;2.28;2.08;;;;;;;;;;5036180;28;20202;-85
2023/10/16 12:18:37;;;;;;;1.90;1.80;;;;;;;;;;5035531;28;20229;-85
2023/10/16 12:21:08;;;;;;;2.10;2.00;;;;;;;;;;5036650;28;20734;-85
2023/10/16 12:23:38;;;;;;;1.80;1.70;;;;;;;;;;5036471;28;20288;-86
2023/10/16 12:26:07;;;;;;;2.10;1.90;;;;;;;;;;5036125;28;20590;-85
2023/10/16 12:28:35;;;;;;;2.00;1.70;;;;;;;;;;5035898;28;20375;-85
2023/10/16 12:31:03;;;;;;;2.40;2.20;;;;;;;;;;5038991;28;20265;-85
2023/10/16 12:33:32;;;;;;;1.60;1.50;;;;;;;;;;5049901;28;20227;-85
2023/10/16 12:36:01;;;;;;;2.17;2.03;;;;;;;;;;5050990;28;20241;-86
2023/10/16 12:38:29;;;;;;;4.40;2.83;;;;;;;;;;5052540;28;20203;-85
2023/10/16 12:40:58;;;;;;;3.40;3.10;;;;;;;;;;5041754;28;20206;-87
2023/10/16 12:43:28;;;;;;;2.67;2.47;;;;;;;;;;5040771;28;20305;-86
2023/10/16 12:45:57;;;;;;;2.60;2.25;;;;;;;;;;5040303;28;20216;-86
2023/10/16 12:48:29;;;;;;;2.15;1.95;;;;;;;;;;5039363;28;20226;-86
2023/10/16 12:50:59;;;;;;;2.00;1.90;;;;;;;;;;5040358;28;20206;-86
2023/10/16 12:53:29;;;;;;;1.50;1.40;;;;;;;;;;5039671;28;20226;-87
2023/10/16 12:55:58;;;;;;;3.15;2.17;;;;;;;;;;5037688;28;20574;-85
2023/10/16 12:58:28;;;;;;;3.10;2.90;;;;;;;;;;5036233;28;20202;-86
2023/10/16 13:00:58;;;;;;;2.47;2.28;;;;;;;;;;5041880;28;20729;-87
2023/10/16 13:03:26;;;;;;;2.90;2.25;;;;;;;;;;5039113;28;20233;-86
2023/10/16 13:05:55;;;;;;;2.17;1.98;;;;;;;;;;5038981;28;20225;-86
2023/10/16 13:08:23;;;;;;;2.08;1.83;;;;;;;;;;5039019;28;20550;-86
2023/10/16 13:10:51;;;;;;;2.47;2.05;;;;;;;;;;5039047;28;20834;-86
2023/10/16 13:13:23;;;;;;;1.88;1.77;;;;;;;;;;5039020;28;20230;-86
2023/10/16 13:15:57;;;;;;;3.38;2.92;;;;;;;;;;5038352;28;20211;-86
2023/10/16 13:18:27;;;;;;;2.40;2.20;;;;;;;;;;5039928;28;20225;-85
2023/10/16 13:21:04;;;;;;;1.85;1.73;;;;;;;;;;5039676;28;20249;-86
2023/10/16 13:23:34;;;;;;;2.35;1.98;;;;;;;;;;5035393;28;20234;-87
2023/10/16 13:26:02;;;;;;;1.90;1.80;;;;;;;;;;5035774;28;20698;-87
2023/10/16 13:28:30;;;;;;;2.35;2.20;;;;;;;;;;5035860;28;20717;-85
2023/10/16 13:30:59;;;;;;;2.63;2.08;;;;;;;;;;5034912;28;20202;-85
2023/10/16 13:33:28;;;;;;;2.72;2.38;;;;;;;;;;5034228;28;20619;-86
2023/10/16 13:35:57;;;;;;;2.78;2.42;;;;;;;;;;5034882;28;20289;-85
2023/10/16 13:38:26;;;;;;;2.28;2.08;;;;;;;;;;5034610;28;20202;-85
2023/10/16 13:40:54;;;;;;;1.92;1.83;;;;;;;;;;5034716;28;20210;-86
2023/10/16 13:43:22;;;;;;;1.80;1.70;;;;;;;;;;5033901;28;20218;-85
2023/10/16 13:45:52;;;;;;;1.75;1.65;;;;;;;;;;5034523;28;20225;-85
2023/10/16 13:48:22;;;;;;;1.52;1.42;;;;;;;;;;5034353;28;20248;-86
2023/10/16 13:50:50;;;;;;;2.92;2.30;;;;;;;;;;5034697;28;20668;-85
2023/10/16 13:53:19;;;;;;;3.75;3.00;;;;;;;;;;5034836;28;20218;-86
2023/10/16 13:55:52;;;;;;;2.42;2.22;;;;;;;;;;5035010;28;20202;-85
2023/10/16 13:58:21;;;;;;;2.72;2.05;;;;;;;;;;5035071;28;20213;-86
2023/10/16 14:00:49;;;;;;;2.47;2.28;;;;;;;;;;5034514;28;20205;-86
2023/10/16 14:03:18;;;;;;;2.53;2.28;;;;;;;;;;5034438;28;20222;-85
2023/10/16 14:05:50;;;;;;;2.45;2.25;;;;;;;;;;5034558;28;20198;-86
2023/10/16 14:08:26;;;;;;;2.92;2.13;;;;;;;;;;5033425;28;20322;-85
2023/10/16 14:10:57;;;;;;;3.55;2.45;;;;;;;;;;5034799;28;20792;-85
2023/10/16 14:13:28;;;;;;;2.13;1.92;;;;;;;;;;5033990;28;20307;-85
2023/10/16 14:16:08;;;;;;;2.92;2.40;;;;;;;;;;5029911;28;20245;-85
2023/10/16 14:18:35;;;;;;;3.20;2.08;;;;;;;;;;5033486;28;20205;-85
2023/10/16 14:21:08;;;;;;;2.70;2.50;;;;;;;;;;5033928;28;20556;-85
2023/10/16 14:23:38;;;;;;;2.78;1.50;;;;;;;;;;5033523;28;20230;-85
2023/10/16 14:26:11;;;;;;;2.05;1.55;;;;;;;;;;5033891;28;20207;-86
2023/10/16 14:28:44;;;;;;;2.25;1.58;;;;;;;;;;5033877;28;20233;-85
2023/10/16 14:31:14;;;;;;;1.33;1.15;;;;;;;;;;5033443;28;20203;-86
2023/10/16 14:33:41;;;;;;;1.60;1.50;;;;;;;;;;5033145;28;20230;-85
2023/10/16 14:36:15;;;;;;;1.13;1.13;;;;;;;;;;5031161;28;20623;-85
2023/10/16 14:38:43;;;;;;;1.75;1.60;;;;;;;;;;5030315;28;20224;-85
2023/10/16 14:41:15;;;;;;;2.15;1.45;;;;;;;;;;5033693;28;20290;-85
2023/10/16 14:43:45;;;;;;;2.08;1.50;;;;;;;;;;5033144;28;20225;-84
2023/10/16 14:46:13;;;;;;;1.27;1.17;;;;;;;;;;5033027;28;20202;-84
2023/10/16 14:48:42;;;;;;;1.30;1.30;;;;;;;;;;5033647;28;20655;-85
2023/10/16 14:51:12;;;;;;;1.58;1.48;;;;;;;;;;5033831;28;20210;-85
2023/10/16 14:53:41;;;;;;;1.40;1.30;;;;;;;;;;5033390;28;20218;-84
2023/10/16 14:56:09;;;;;;;1.30;1.20;;;;;;;;;;5033414;28;20198;-84
2023/10/16 14:58:39;;;;;;;1.40;1.30;;;;;;;;;;5032942;28;20245;-84
2023/10/16 15:01:15;;;;;;;1.75;1.65;;;;;;;;;;5033943;28;20194;-84
2023/10/16 15:03:43;;;;;;;1.40;1.20;;;;;;;;;;5033187;28;20222;-86
2023/10/16 15:06:15;;;;;;;1.33;1.23;;;;;;;;;;5032890;28;20205;-85
2023/10/16 15:08:44;;;;;;;1.35;1.20;;;;;;;;;;5033500;28;20321;-85
2023/10/16 15:11:12;;;;;;;1.40;1.30;;;;;;;;;;5032958;28;20201;-85
2023/10/16 15:13:40;;;;;;;2.30;1.23;;;;;;;;;;5032705;28;20313;-84
2023/10/16 15:16:09;;;;;;;1.92;1.70;;;;;;;;;;5033113;28;20209;-85
2023/10/16 15:18:38;;;;;;;1.10;1.00;;;;;;;;;;5032576;28;20197;-85
2023/10/16 15:21:07;;;;;;;0.90;0.90;;;;;;;;;;5033534;28;20207;-85
2023/10/16 15:23:36;;;;;;;1.42;1.33;;;;;;;;;;5033474;28;20245;-85
2023/10/16 15:26:05;;;;;;;2.25;1.73;;;;;;;;;;5033086;28;20942;-85
2023/10/16 15:28:32;;;;;;;1.83;1.70;;;;;;;;;;5032924;28;20297;-85
2023/10/16 15:31:01;;;;;;;3.03;1.92;;;;;;;;;;5033100;28;20202;-85
2023/10/16 15:33:29;;;;;;;2.30;2.10;;;;;;;;;;5033466;28;20245;-85
2023/10/16 15:35:57;;;;;;;2.88;1.80;;;;;;;;;;5033112;28;20213;-84
2023/10/16 15:38:26;;;;;;;5.65;2.90;;;;;;;;;;5033144;28;20236;-84
2023/10/16 15:41:00;;;;;;;2.35;2.10;;;;;;;;;;5033374;28;20584;-84
2023/10/16 15:43:27;;;;;;;2.20;2.00;;;;;;;;;;5033037;28;20225;-84
2023/10/16 15:45:55;;;;;;;2.40;2.20;;;;;;;;;;5028851;28;20209;-84
2023/10/16 15:48:23;;;;;;;2.50;2.30;;;;;;;;;;5033170;28;20281;-84
2023/10/16 15:50:52;;;;;;;4.00;2.08;;;;;;;;;;5033179;28;20229;-84
2023/10/16 15:53:21;;;;;;;2.30;2.10;;;;;;;;;;5033966;28;20223;-85
2023/10/16 15:55:48;;;;;;;2.78;2.45;;;;;;;;;;5034150;28;20202;-84
2023/10/16 15:58:17;;;;;;;2.47;2.22;;;;;;;;;;5033534;28;20198;-84
2023/10/16 16:00:48;;;;;;;4.55;3.83;;;;;;;;;;5033309;28;20258;-84
2023/10/16 16:03:15;;;;;;;3.75;3.38;;;;;;;;;;5033178;28;20663;-84
2023/10/16 16:05:42;;;;;;;9.52;6.13;;;;;;;;;;5033591;28;20285;-85
2023/10/16 16:08:10;;;;;;;7.07;5.25;;;;;;;;;;5033587;28;20245;-85
2023/10/16 16:10:40;;;;;;;4.90;3.17;;;;;;;;;;5033661;28;20313;-84
2023/10/16 16:13:07;;;;;;;3.40;2.97;;;;;;;;;;5033329;28;20208;-85
2023/10/16 16:15:39;;;;;;;4.05;2.78;;;;;;;;;;5030677;28;20211;-85
2023/10/16 16:18:07;;;;;;;2.75;2.30;;;;;;;;;;5033132;28;20702;-86
2023/10/16 16:20:34;;;;;;;2.47;2.28;;;;;;;;;;5033735;28;20637;-84
2023/10/16 16:23:03;;;;;;;4.68;4.22;;;;;;;;;;5032998;28;20627;-85
2023/10/16 16:25:31;;;;;;;5.05;4.22;;;;;;;;;;5033662;28;20336;-85
2023/10/16 16:27:59;;;;;;;6.90;5.03;;;;;;;;;;5037034;28;20205;-85